createdAt,value
2022-09-10T00:02:01.917Z,0.63
2022-09-10T00:04:28.581Z,3.47
2022-09-10T00:06:55.637Z,0.77
2022-09-10T00:09:22.876Z,1.55
2022-09-10T00:11:49.706Z,2.28
2022-09-10T00:14:22.103Z,0.88
2022-09-10T00:16:49.556Z,1.05
2022-09-10T00:19:16.747Z,0.63
2022-09-10T00:21:44.442Z,0.63
2022-09-10T00:24:11.417Z,0.30
2022-09-10T00:26:39.515Z,1.85
2022-09-10T00:29:09.484Z,1.02
2022-09-10T00:31:36.946Z,0.30
2022-09-10T00:34:05.592Z,0.38
2022-09-10T00:36:36.022Z,1.85
2022-09-10T00:39:06.169Z,0.25
2022-09-10T00:41:33.782Z,0.50
2022-09-10T00:44:03.644Z,0.52
2022-09-10T00:46:45.662Z,0.50
2022-09-10T00:49:22.335Z,0.45
2022-09-10T00:51:52.567Z,0.98
2022-09-10T00:54:21.983Z,0.98
2022-09-10T00:56:49.711Z,1.70
2022-09-10T00:59:20.235Z,0.25
2022-09-10T01:01:49.177Z,1.75
2022-09-10T01:04:16.135Z,0.43
2022-09-10T01:06:46.147Z,0.20
2022-09-10T01:09:14.160Z,0.85
2022-09-10T01:11:58.203Z,0.22
2022-09-10T01:14:24.694Z,0.20
2022-09-10T01:17:03.598Z,0.65
2022-09-10T01:19:53.099Z,1.88
2022-09-10T01:22:26.841Z,0.75
2022-09-10T01:24:54.470Z,0.47
2022-09-10T01:27:52.679Z,0.20
2022-09-10T01:30:24.365Z,0.45
2022-09-10T01:32:56.885Z,0.47
2022-09-10T01:35:40.384Z,1.85
2022-09-10T01:38:17.105Z,0.10
2022-09-10T01:40:44.472Z,1.33
2022-09-10T01:43:14.913Z,1.05
2022-09-10T01:45:57.287Z,0.63
2022-09-10T01:49:03.815Z,0.30
2022-09-10T01:51:39.308Z,0.30
2022-09-10T01:54:26.279Z,1.92
2022-09-10T01:57:06.285Z,0.40
2022-09-10T01:59:43.673Z,0.82
2022-09-10T02:02:19.633Z,0.10
2022-09-10T02:04:50.403Z,0.50
2022-09-10T02:07:22.384Z,0.20
2022-09-10T02:09:52.082Z,1.55
2022-09-10T02:12:21.355Z,1.02
2022-09-10T02:14:58.193Z,1.85
2022-09-10T02:17:38.342Z,0.98
2022-09-10T02:20:09.564Z,0.95
2022-09-10T02:22:38.395Z,3.20
2022-09-10T02:25:05.747Z,0.57
2022-09-10T02:27:33.323Z,0.73
2022-09-10T02:30:01.091Z,1.52
2022-09-10T02:32:28.868Z,0.55
2022-09-10T02:34:55.835Z,0.85
2022-09-10T02:37:22.907Z,0.32
2022-09-10T02:39:49.588Z,0.20
2022-09-10T02:42:18.044Z,0.30
2022-09-10T02:44:47.842Z,2.72
2022-09-10T02:47:15.099Z,1.33
2022-09-10T02:49:41.855Z,1.08
2022-09-10T02:52:08.866Z,1.00
2022-09-10T02:54:37.037Z,0.20
2022-09-10T02:57:03.834Z,2.05
2022-09-10T02:59:32.663Z,0.52
2022-09-10T03:01:59.613Z,1.02
2022-09-10T03:04:26.185Z,0.47
2022-09-10T03:06:54.900Z,1.77
2022-09-10T03:09:22.585Z,0.88
2022-09-10T03:11:50.210Z,0.45
2022-09-10T03:14:20.363Z,3.10
2022-09-10T03:16:47.868Z,0.15
2022-09-10T03:19:15.543Z,0.40
2022-09-10T03:21:42.590Z,0.40
2022-09-10T03:24:14.285Z,2.08
2022-09-10T03:26:43.338Z,0.30
2022-09-10T03:29:09.967Z,0.20
2022-09-10T03:31:39.535Z,0.43
2022-09-10T03:34:06.264Z,1.48
2022-09-10T03:36:32.822Z,0.22
2022-09-10T03:38:59.830Z,2.00
2022-09-10T03:41:30.643Z,1.15
2022-09-10T03:43:58.244Z,1.02
2022-09-10T03:46:26.224Z,1.00
2022-09-10T03:48:55.665Z,0.30
2022-09-10T03:51:24.656Z,1.40
2022-09-10T03:53:51.862Z,0.80
2022-09-10T03:56:20.994Z,1.10
2022-09-10T03:58:49.230Z,0.10
2022-09-10T04:01:19.563Z,0.15
2022-09-10T04:03:48.278Z,1.23
2022-09-10T04:06:18.808Z,0.73
2022-09-10T04:08:48.968Z,0.20
2022-09-10T04:11:16.132Z,0.20
2022-09-10T04:13:43.376Z,0.20
2022-09-10T04:16:11.998Z,1.55
2022-09-10T04:18:39.654Z,0.20
2022-09-10T04:21:06.387Z,0.90
2022-09-10T04:23:33.876Z,0.10
2022-09-10T04:26:14.590Z,1.05
2022-09-10T04:28:42.374Z,0.10
2022-09-10T04:31:10.796Z,0.77
2022-09-10T04:33:38.558Z,0.55
2022-09-10T04:36:06.097Z,0.20
2022-09-10T04:38:40.095Z,1.33
2022-09-10T04:41:06.909Z,0.47
2022-09-10T04:43:33.586Z,1.48
2022-09-10T04:46:01.130Z,0.30
2022-09-10T04:48:29.937Z,1.83
2022-09-10T04:51:15.311Z,0.60
2022-09-10T04:53:45.993Z,0.20
2022-09-10T04:56:13.198Z,1.65
2022-09-10T04:58:41.089Z,0.57
2022-09-10T05:01:08.225Z,0.98
2022-09-10T05:03:34.909Z,0.25
2022-09-10T05:06:02.879Z,4.88
2022-09-10T05:08:30.120Z,0.47
2022-09-10T05:11:00.432Z,1.80
2022-09-10T05:13:28.875Z,0.65
2022-09-10T05:15:55.460Z,0.73
2022-09-10T05:18:24.534Z,0.38
2022-09-10T05:20:52.099Z,0.35
2022-09-10T05:23:19.989Z,0.90
2022-09-10T05:26:02.329Z,0.28
2022-09-10T05:28:29.927Z,0.57
2022-09-10T05:30:56.554Z,0.38
2022-09-10T05:33:26.136Z,1.10
2022-09-10T05:35:52.869Z,0.28
2022-09-10T05:38:20.952Z,0.10
2022-09-10T05:40:48.160Z,0.80
2022-09-10T05:43:14.894Z,0.70
2022-09-10T05:45:43.347Z,0.28
2022-09-10T05:48:09.984Z,0.35
2022-09-10T05:50:38.438Z,1.67
2022-09-10T05:53:05.171Z,0.52
2022-09-10T05:55:33.276Z,1.08
2022-09-10T05:58:00.256Z,0.90
2022-09-10T06:00:30.346Z,1.67
2022-09-10T06:02:59.922Z,2.10
2022-09-10T06:05:51.422Z,2.13
2022-09-10T06:08:23.039Z,2.03
2022-09-10T06:10:58.585Z,0.60
2022-09-10T06:13:27.492Z,0.65
2022-09-10T06:15:56.347Z,0.73
2022-09-10T06:18:25.161Z,1.60
2022-09-10T06:21:04.177Z,2.90
2022-09-10T06:23:31.366Z,1.05
2022-09-10T06:26:04.580Z,0.65
2022-09-10T06:28:33.301Z,1.13
2022-09-10T06:31:00.510Z,0.50
2022-09-10T06:33:28.775Z,0.15
2022-09-10T06:35:57.255Z,0.77
2022-09-10T06:38:25.126Z,1.10
2022-09-10T06:40:56.322Z,0.10
2022-09-10T06:43:24.234Z,0.75
2022-09-10T06:46:50.831Z,0.80
2022-09-10T06:49:06.137Z,0.10
2022-09-10T06:51:35.136Z,0.63
2022-09-10T06:54:03.996Z,0.20
2022-09-10T06:56:30.658Z,1.42
2022-09-10T06:59:02.335Z,0.20
2022-09-10T07:01:35.385Z,1.17
2022-09-10T07:04:02.749Z,0.20
2022-09-10T07:06:34.787Z,1.27
2022-09-10T07:09:08.185Z,0.13
2022-09-10T07:11:41.803Z,0.08
2022-09-10T07:14:12.650Z,0.30
2022-09-10T07:16:42.119Z,0.10
2022-09-10T07:19:17.338Z,1.00
2022-09-10T07:21:45.264Z,0.10
2022-09-10T07:24:14.504Z,0.25
2022-09-10T07:27:05.205Z,0.10
2022-09-10T07:29:35.235Z,1.65
2022-09-10T07:32:04.374Z,1.67
2022-09-10T07:34:31.659Z,0.93
2022-09-10T07:36:58.400Z,1.40
2022-09-10T07:39:26.892Z,0.10
2022-09-10T07:41:55.724Z,0.20
2022-09-10T07:44:26.893Z,0.35
2022-09-10T07:46:55.295Z,1.50
2022-09-10T07:49:22.062Z,1.25
2022-09-10T07:51:57.656Z,0.70
2022-09-10T07:54:28.482Z,0.50
2022-09-10T07:56:56.641Z,1.40
2022-09-10T07:59:23.252Z,0.50
2022-09-10T08:01:53.735Z,0.95
2022-09-10T08:04:21.985Z,1.02
2022-09-10T08:06:51.769Z,0.63
2022-09-10T08:09:21.296Z,0.50
2022-09-10T08:11:53.991Z,0.73
2022-09-10T08:14:23.316Z,0.20
2022-09-10T08:16:53.019Z,0.30
2022-09-10T08:19:20.728Z,0.10
2022-09-10T08:21:47.936Z,0.40
2022-09-10T08:24:20.876Z,0.70
2022-09-10T08:26:49.889Z,0.32
2022-09-10T08:29:17.493Z,0.20
2022-09-10T08:31:44.797Z,0.20
2022-09-10T08:34:26.358Z,2.60
2022-09-10T08:37:03.207Z,0.20
2022-09-10T08:39:31.587Z,0.17
2022-09-10T08:42:04.898Z,0.20
2022-09-10T08:44:36.634Z,0.98
2022-09-10T08:47:27.736Z,0.50
2022-09-10T08:50:03.960Z,0.10
2022-09-10T08:52:46.256Z,0.30
2022-09-10T08:55:20.464Z,0.40
2022-09-10T08:58:00.030Z,0.50
2022-09-10T09:00:34.178Z,2.67
2022-09-10T09:03:17.171Z,0.38
2022-09-10T09:05:57.955Z,0.38
2022-09-10T09:08:36.776Z,0.30
2022-09-10T09:11:36.179Z,0.43
2022-09-10T09:14:14.222Z,0.60
2022-09-10T09:17:02.249Z,0.70
2022-09-10T09:19:46.065Z,0.22
2022-09-10T09:22:15.838Z,0.10
2022-09-10T09:25:20.512Z,3.60
2022-09-10T09:27:48.624Z,2.10
2022-09-10T09:30:27.785Z,1.77
2022-09-10T09:33:02.349Z,0.93
2022-09-10T09:35:32.980Z,0.82
2022-09-10T09:38:26.642Z,1.02
2022-09-10T09:41:07.214Z,0.95
2022-09-10T09:44:03.317Z,1.58
2022-09-10T09:46:34.394Z,0.10
2022-09-10T09:49:04.372Z,1.23
2022-09-10T09:51:35.814Z,0.43
2022-09-10T09:57:02.924Z,0.63
2022-09-10T09:59:34.943Z,0.63
2022-09-10T10:02:12.163Z,0.70
2022-09-10T10:04:42.372Z,0.30
2022-09-10T10:07:09.501Z,0.32
2022-09-10T10:09:42.765Z,0.82
2022-09-10T10:12:20.112Z,0.30
2022-09-10T10:14:46.914Z,0.73
2022-09-10T10:17:31.465Z,1.08
2022-09-10T10:20:09.021Z,1.23
2022-09-10T10:22:38.483Z,1.15
2022-09-10T10:25:26.466Z,0.57
2022-09-10T10:27:54.345Z,0.88
2022-09-10T10:30:23.936Z,0.30
2022-09-10T10:32:53.320Z,0.82
2022-09-10T10:35:35.171Z,2.75
2022-09-10T10:38:25.147Z,2.17
2022-09-10T10:41:29.739Z,1.75
2022-09-10T10:44:24.065Z,1.08
2022-09-10T10:47:01.044Z,0.93
2022-09-10T10:50:10.915Z,1.02
2022-09-10T10:53:05.494Z,0.52
2022-09-10T10:55:50.294Z,1.42
2022-09-10T10:58:55.896Z,0.20
2022-09-10T11:01:31.397Z,1.98
2022-09-10T11:04:26.452Z,0.82
2022-09-10T11:07:05.576Z,0.60
2022-09-10T11:09:32.273Z,0.10
2022-09-10T11:12:15.167Z,0.55
2022-09-10T11:14:59.305Z,2.03
2022-09-10T11:17:36.162Z,1.15
2022-09-10T11:20:31.710Z,0.50
2022-09-10T11:23:18.299Z,1.85
2022-09-10T11:26:14.357Z,0.77
2022-09-10T11:28:50.871Z,0.20
2022-09-10T11:31:31.689Z,1.00
2022-09-10T11:34:05.367Z,0.52
2022-09-10T11:36:53.443Z,0.45
2022-09-10T11:39:38.222Z,0.68
2022-09-10T11:42:19.999Z,1.17
2022-09-10T11:45:10.751Z,0.75
2022-09-10T11:47:42.766Z,0.70
2022-09-10T11:50:22.479Z,1.17
2022-09-10T11:52:49.450Z,0.95
2022-09-10T11:55:17.750Z,1.08
2022-09-10T11:58:11.555Z,1.75
2022-09-10T12:01:03.532Z,0.57
2022-09-10T12:03:48.844Z,0.77
2022-09-10T12:06:36.827Z,0.55
2022-09-10T12:09:11.858Z,1.55
2022-09-10T12:12:07.655Z,1.15
2022-09-10T12:14:39.475Z,0.95
2022-09-10T12:17:13.319Z,0.20
2022-09-10T12:19:55.566Z,0.85
2022-09-10T12:22:29.426Z,0.63
2022-09-10T12:25:02.095Z,1.40
2022-09-10T12:27:49.034Z,0.40
2022-09-10T12:30:24.663Z,0.30
2022-09-10T12:32:55.484Z,1.45
2022-09-10T12:35:31.297Z,0.38
2022-09-10T12:38:35.787Z,0.13
2022-09-10T12:41:07.784Z,3.80
2022-09-10T12:43:40.511Z,0.45
2022-09-10T12:46:07.342Z,0.65
2022-09-10T12:48:36.410Z,1.02
2022-09-10T12:51:24.212Z,2.67
2022-09-10T12:54:06.052Z,1.88
2022-09-10T12:56:41.664Z,1.08
2022-09-10T12:59:26.911Z,1.38
2022-09-10T13:01:54.591Z,1.35
2022-09-10T13:04:30.437Z,0.50
2022-09-10T13:07:01.463Z,1.10
2022-09-10T13:12:16.454Z,2.70
2022-09-10T13:14:48.282Z,0.85
2022-09-10T13:17:38.565Z,0.13
2022-09-10T13:20:20.794Z,0.57
2022-09-10T13:23:09.276Z,0.17
2022-09-10T13:25:44.129Z,0.77
2022-09-10T13:28:28.992Z,0.32
2022-09-10T13:31:08.746Z,0.57
2022-09-10T13:33:52.641Z,1.00
2022-09-10T13:36:41.551Z,0.70
2022-09-10T13:39:26.630Z,0.00
2022-09-10T13:42:38.155Z,1.95
2022-09-10T13:47:40.562Z,0.38
2022-09-10T13:50:15.429Z,0.13
2022-09-10T13:52:45.152Z,0.30
2022-09-10T14:44:20.070Z,0.90
2022-09-10T14:46:52.445Z,0.43
2022-09-10T14:49:26.595Z,0.32
2022-09-10T14:51:53.540Z,0.57
2022-09-10T14:54:20.166Z,0.10
2022-09-10T14:56:48.257Z,0.15
2022-09-10T14:59:20.623Z,0.22
2022-09-10T15:01:48.437Z,1.38
2022-09-10T15:04:23.492Z,0.85
2022-09-10T15:06:54.418Z,1.23
2022-09-10T15:09:21.954Z,1.65
2022-09-10T15:11:54.649Z,1.13
2022-09-10T15:14:22.234Z,1.55
2022-09-10T15:16:52.119Z,1.17
2022-09-10T15:19:22.665Z,0.20
2022-09-10T15:21:49.774Z,0.00
2022-09-10T15:24:22.359Z,0.50
2022-09-10T15:26:49.708Z,0.55
2022-09-10T15:29:17.909Z,1.50
2022-09-10T15:31:44.723Z,0.10
2022-09-10T15:34:11.896Z,0.38
2022-09-10T15:36:40.310Z,2.33
2022-09-10T15:39:08.599Z,1.77
2022-09-10T15:41:35.135Z,0.80
2022-09-10T15:44:02.802Z,0.10
2022-09-10T15:46:29.496Z,1.23
2022-09-10T15:48:58.692Z,0.50
2022-09-10T15:51:25.546Z,0.38
2022-09-10T15:53:53.550Z,0.60
2022-09-10T15:56:21.772Z,0.57
2022-09-10T15:58:55.061Z,0.10
2022-09-10T16:01:23.291Z,0.40
2022-09-10T16:03:52.652Z,0.55
2022-09-10T16:06:19.810Z,0.10
2022-09-10T16:08:57.270Z,0.13
2022-09-10T16:11:25.377Z,1.45
2022-09-10T16:13:52.286Z,1.60
2022-09-10T16:16:23.756Z,0.25
2022-09-10T16:18:52.607Z,0.50
2022-09-10T16:21:26.144Z,0.85
2022-09-10T16:23:55.217Z,1.00
2022-09-10T16:26:24.611Z,1.02
2022-09-10T16:29:01.728Z,0.30
2022-09-10T16:31:31.065Z,1.83
2022-09-10T16:34:00.981Z,1.88
2022-09-10T16:36:27.567Z,2.08
2022-09-10T16:38:58.352Z,6.10
2022-09-10T16:41:25.854Z,3.13
2022-09-10T16:43:53.519Z,2.70
2022-09-10T16:46:20.213Z,1.25
2022-09-10T16:48:46.895Z,1.17
2022-09-10T16:51:15.891Z,2.20
2022-09-10T16:53:44.674Z,2.55
2022-09-10T16:56:14.063Z,2.45
2022-09-10T16:58:44.249Z,1.02
2022-09-10T17:01:10.852Z,3.58
2022-09-10T17:03:46.129Z,1.45
2022-09-10T17:06:15.167Z,2.72
2022-09-10T17:08:42.234Z,1.35
2022-09-10T17:11:08.840Z,6.65
2022-09-10T17:13:36.011Z,10.23
2022-09-10T17:16:23.067Z,6.85
2022-09-10T17:19:01.401Z,12.85
2022-09-10T17:21:31.448Z,11.55
2022-09-10T17:23:59.116Z,9.55
2022-09-10T17:26:26.964Z,8.32
2022-09-10T17:29:24.494Z,4.70
2022-09-10T17:31:52.330Z,6.95
2022-09-10T17:34:24.377Z,2.35
2022-09-10T17:36:51.395Z,1.25
2022-09-10T17:39:18.202Z,1.20
2022-09-10T17:41:45.182Z,1.65
2022-09-10T17:44:13.356Z,1.10
2022-09-10T17:46:40.458Z,1.70
2022-09-10T17:49:07.128Z,1.15
2022-09-10T17:51:35.262Z,1.90
2022-09-10T17:54:04.659Z,2.38
2022-09-10T17:56:31.357Z,1.95
2022-09-10T17:59:01.486Z,1.75
2022-09-10T18:01:30.741Z,0.45
2022-09-10T18:03:57.623Z,0.52
2022-09-10T18:06:28.890Z,1.48
2022-09-10T18:11:28.195Z,1.27
2022-09-10T18:13:57.163Z,4.07
2022-09-10T18:16:27.240Z,1.38
2022-09-10T18:18:56.765Z,2.35
2022-09-10T18:21:30.927Z,2.33
2022-09-10T18:24:03.786Z,1.35
2022-09-10T18:26:33.817Z,0.93
2022-09-10T18:29:10.461Z,2.30
2022-09-10T18:31:39.632Z,2.00
2022-09-10T18:34:08.267Z,1.40
2022-09-10T18:36:35.124Z,1.48
2022-09-10T18:39:03.932Z,4.78
2022-09-10T18:41:32.826Z,10.45
2022-09-10T18:44:03.974Z,5.90
2022-09-10T18:46:32.259Z,2.38
2022-09-10T18:48:59.996Z,7.38
2022-09-10T18:51:28.755Z,1.23
2022-09-10T18:53:58.334Z,3.03
2022-09-10T18:56:27.429Z,6.35
2022-09-10T18:58:55.921Z,4.75
2022-09-10T19:01:24.318Z,1.83
2022-09-10T19:03:51.110Z,4.10
2022-09-10T19:06:20.182Z,3.28
2022-09-10T19:08:49.334Z,0.80
2022-09-10T19:11:19.292Z,2.13
2022-09-10T19:13:56.626Z,1.85
2022-09-10T19:16:29.815Z,1.92
2022-09-10T19:18:58.736Z,0.85
2022-09-10T19:21:27.251Z,0.80
2022-09-10T19:23:59.549Z,0.55
2022-09-10T19:26:29.130Z,0.98
2022-09-10T19:29:00.827Z,0.93
2022-09-10T19:31:30.076Z,0.95
2022-09-10T19:33:59.031Z,0.65
2022-09-10T19:36:31.612Z,1.15
2022-09-10T19:38:59.537Z,1.10
2022-09-10T19:41:27.025Z,2.10
2022-09-10T19:43:56.453Z,3.85
2022-09-10T19:46:28.273Z,0.60
2022-09-10T19:48:58.247Z,1.65
2022-09-10T19:51:27.817Z,1.60
2022-09-10T19:53:55.193Z,3.75
2022-09-10T19:56:27.251Z,1.23
2022-09-10T19:58:58.439Z,1.80
2022-09-10T20:01:35.930Z,1.48
2022-09-10T20:04:05.815Z,1.25
2022-09-10T20:06:34.353Z,1.35
2022-09-10T20:09:02.505Z,1.90
2022-09-10T20:11:32.925Z,1.33
2022-09-10T20:14:02.806Z,0.60
2022-09-10T20:16:29.930Z,0.75
2022-09-10T20:18:56.542Z,0.85
2022-09-10T20:21:30.973Z,3.85
2022-09-10T20:23:58.315Z,4.38
2022-09-10T20:26:31.727Z,3.40
2022-09-10T20:29:03.971Z,3.22
2022-09-10T20:31:33.651Z,3.50
2022-09-10T20:34:03.464Z,2.42
2022-09-10T20:36:34.361Z,2.22
2022-09-10T20:39:01.269Z,1.90
2022-09-10T20:41:30.211Z,3.08
2022-09-10T20:43:59.321Z,1.33
2022-09-10T20:46:27.730Z,3.50
2022-09-10T20:48:56.756Z,2.60
2022-09-10T20:51:23.695Z,1.95
2022-09-10T20:53:50.254Z,2.53
2022-09-10T20:56:18.624Z,1.17
2022-09-10T20:58:46.250Z,0.93
2022-09-10T21:01:12.819Z,1.05
2022-09-10T21:03:43.403Z,1.48
2022-09-10T21:06:11.983Z,0.70
2022-09-10T21:08:40.702Z,0.60
2022-09-10T21:11:10.737Z,0.63
2022-09-10T21:13:41.961Z,0.60
2022-09-10T21:16:13.855Z,0.40
2022-09-10T21:18:41.858Z,0.80
2022-09-10T21:21:13.406Z,0.65
2022-09-10T21:26:14.153Z,1.50
2022-09-10T21:28:41.823Z,3.38
2022-09-10T21:31:09.620Z,0.52
2022-09-10T21:33:36.775Z,1.73
2022-09-10T21:36:06.393Z,1.00
2022-09-10T21:38:36.604Z,0.75
2022-09-10T21:41:06.457Z,0.50
2022-09-10T21:43:35.297Z,1.00
2022-09-10T21:46:02.997Z,0.70
2022-09-10T21:48:30.166Z,1.00
2022-09-10T21:51:01.270Z,1.10
2022-09-10T21:53:28.110Z,0.43
2022-09-10T21:55:58.666Z,2.03
2022-09-10T21:58:29.123Z,1.50
2022-09-10T22:00:59.631Z,0.77
2022-09-10T22:03:31.483Z,1.57
2022-09-10T22:06:08.352Z,0.50
2022-09-10T22:08:36.862Z,0.38
2022-09-10T22:11:08.149Z,0.30
2022-09-10T22:13:37.798Z,3.40
2022-09-10T22:16:08.369Z,5.30
2022-09-10T22:18:35.591Z,0.40
2022-09-10T22:21:02.375Z,1.38
2022-09-10T22:23:31.689Z,1.15
2022-09-10T22:26:13.039Z,3.15
2022-09-10T22:28:40.510Z,1.65
2022-09-10T22:31:27.584Z,0.50
2022-09-10T22:34:00.104Z,1.20
2022-09-10T22:36:30.970Z,0.45
2022-09-10T22:39:00.334Z,1.05
2022-09-10T22:41:28.316Z,0.63
2022-09-10T22:43:55.345Z,0.45
2022-09-10T22:46:23.592Z,0.95
2022-09-10T22:48:50.568Z,0.80
2022-09-10T22:51:20.309Z,0.52
2022-09-10T22:53:47.139Z,0.35
2022-09-10T22:56:15.020Z,0.85
2022-09-10T22:58:41.696Z,0.35
2022-09-10T23:01:12.295Z,3.90
2022-09-10T23:03:39.535Z,1.70
2022-09-10T23:06:09.386Z,2.33
2022-09-10T23:08:36.863Z,1.20
2022-09-10T23:11:17.926Z,0.57
2022-09-10T23:13:46.572Z,0.95
2022-09-10T23:16:14.511Z,1.38
2022-09-10T23:18:42.291Z,1.13
2022-09-10T23:21:09.839Z,1.20
2022-09-10T23:23:36.492Z,2.28
2022-09-10T23:26:05.928Z,1.15
2022-09-10T23:28:32.704Z,0.40
2022-09-10T23:31:13.344Z,0.85
2022-09-10T23:34:01.910Z,3.57
2022-09-10T23:36:34.690Z,1.75
2022-09-10T23:39:03.586Z,0.77
2022-09-10T23:41:30.298Z,1.08
2022-09-10T23:43:57.275Z,3.10
2022-09-10T23:46:24.531Z,2.30
2022-09-10T23:48:51.616Z,1.50
2022-09-10T23:51:20.566Z,1.83
2022-09-10T23:53:48.194Z,0.90
2022-09-10T23:56:19.950Z,3.70
2022-09-10T23:58:49.288Z,0.55
